Time;durP1;ratioP1;P1;durP2;ratioP2;P2;SDS_P1;SDS_P2;PMS_P1;PMS_P2;Temp;Humidity;BMP_temperature;BMP_pressure;BME280_temperature;BME280_humidity;BME280_pressure;Samples;Min_cycle;Max_cycle;Signal;HPM_P1;HPM_P2
2022/11/29 00:00:59;;;;;;;44.90;27.33;;;4.50;93.60;;;;;;4970040;28;20470;-81
2022/11/29 00:03:26;;;;;;;57.50;31.15;;;4.50;93.70;;;;;;4964834;28;20553;-75
2022/11/29 00:05:52;;;;;;;54.58;30.70;;;4.50;93.70;;;;;;4963164;28;20047;-74
2022/11/29 00:08:19;;;;;;;52.03;29.27;;;4.60;93.70;;;;;;4965932;28;20049;-76
2022/11/29 00:10:45;;;;;;;40.15;25.55;;;4.60;93.70;;;;;;4965612;28;20043;-75
2022/11/29 00:13:11;;;;;;;38.13;26.13;;;4.50;93.70;;;;;;4956798;28;20029;-75
2022/11/29 00:15:37;;;;;;;50.60;30.27;;;4.50;93.60;;;;;;4968683;28;20039;-76
2022/11/29 00:18:04;;;;;;;48.15;30.58;;;4.40;93.60;;;;;;4963212;28;20027;-76
2022/11/29 00:20:31;;;;;;;37.35;24.38;;;4.40;93.70;;;;;;4964549;28;20062;-79
2022/11/29 00:22:57;;;;;;;44.97;26.33;;;4.40;93.70;;;;;;4966343;28;20338;-80
2022/11/29 00:25:23;;;;;;;31.73;23.63;;;4.40;93.70;;;;;;4966584;28;20464;-77
2022/11/29 00:27:50;;;;;;;44.63;26.70;;;4.30;93.70;;;;;;4969789;28;20038;-74
2022/11/29 00:30:16;;;;;;;43.53;29.27;;;4.40;93.70;;;;;;4969191;28;20235;-75
2022/11/29 00:32:42;;;;;;;61.35;36.50;;;4.30;93.60;;;;;;4962773;28;20058;-77
2022/11/29 00:35:08;;;;;;;62.42;37.55;;;4.30;93.40;;;;;;4969389;28;20062;-79
2022/11/29 00:37:33;;;;;;;81.55;41.03;;;4.30;93.50;;;;;;4960531;28;20117;-79
2022/11/29 00:39:59;;;;;;;64.53;40.53;;;4.20;93.50;;;;;;4968148;28;20051;-77
2022/11/29 00:42:25;;;;;;;62.97;38.25;;;4.20;93.50;;;;;;4964047;28;20058;-77
2022/11/29 00:44:50;;;;;;;63.67;36.13;;;4.20;93.50;;;;;;4960941;28;20531;-74
2022/11/29 00:47:16;;;;;;;52.50;33.13;;;4.20;93.50;;;;;;4970346;28;20123;-74
2022/11/29 00:49:41;;;;;;;44.72;30.10;;;4.20;93.50;;;;;;4966650;28;20035;-80
2022/11/29 00:52:07;;;;;;;42.45;29.00;;;4.20;93.40;;;;;;4973135;28;20094;-79
2022/11/29 00:54:33;;;;;;;44.63;29.83;;;4.20;93.40;;;;;;4964610;28;20045;-75
2022/11/29 00:56:59;;;;;;;48.40;29.50;;;4.20;93.40;;;;;;4964392;28;20130;-73
2022/11/29 00:59:24;;;;;;;56.65;33.10;;;4.10;93.20;;;;;;4971801;28;20529;-76
2022/11/29 01:01:50;;;;;;;78.75;37.70;;;4.00;93.20;;;;;;4969291;28;20117;-79
2022/11/29 01:04:16;;;;;;;59.78;34.70;;;4.00;93.20;;;;;;4967393;28;20089;-76
2022/11/29 01:06:41;;;;;;;51.83;33.15;;;4.10;93.40;;;;;;4968011;28;20097;-74
2022/11/29 01:09:07;;;;;;;51.90;32.63;;;4.10;93.40;;;;;;4964495;28;20061;-74
2022/11/29 01:11:33;;;;;;;46.20;31.80;;;4.20;93.50;;;;;;4965346;28;20039;-76
2022/11/29 01:14:01;;;;;;;44.85;30.67;;;4.20;93.50;;;;;;4961744;28;20130;-76
2022/11/29 01:16:28;;;;;;;42.78;29.83;;;4.40;93.50;;;;;;4956657;28;20031;-76
2022/11/29 01:18:55;;;;;;;45.70;32.00;;;4.30;93.50;;;;;;4963285;28;20523;-75
2022/11/29 01:21:23;;;;;;;47.92;32.70;;;4.50;93.50;;;;;;4962798;28;20043;-78
2022/11/29 01:23:50;;;;;;;45.33;31.83;;;4.50;93.30;;;;;;4969436;28;20061;-79
2022/11/29 01:26:24;;;;;;;41.50;31.23;;;4.40;93.20;;;;;;4967828;28;20081;-77
2022/11/29 01:28:52;;;;;;;45.30;32.80;;;4.40;93.30;;;;;;4960925;28;20050;-75
2022/11/29 01:31:31;;;;;;;44.47;32.30;;;4.40;93.30;;;;;;4968897;28;20110;-76
2022/11/29 01:33:59;;;;;;;43.92;31.80;;;4.40;93.20;;;;;;4966784;28;20061;-82
2022/11/29 01:36:26;;;;;;;41.72;31.70;;;4.30;93.20;;;;;;4968128;28;20573;-79
2022/11/29 01:38:52;;;;;;;46.28;31.48;;;4.30;93.20;;;;;;4966467;28;20027;-75
2022/11/29 01:41:23;;;;;;;43.95;30.05;;;4.20;93.20;;;;;;4968748;28;20038;-74
2022/11/29 01:43:54;;;;;;;48.58;33.13;;;4.20;93.30;;;;;;4969740;28;20031;-78
2022/11/29 01:46:19;;;;;;;45.28;29.65;;;4.20;93.30;;;;;;4967371;28;20038;-76
2022/11/29 01:48:46;;;;;;;47.97;31.83;;;4.20;93.20;;;;;;4962216;28;20042;-75
2022/11/29 01:51:12;;;;;;;58.92;31.60;;;4.10;93.20;;;;;;4975351;28;20500;-80
2022/11/29 01:53:37;;;;;;;42.53;29.90;;;4.10;93.10;;;;;;4968277;28;20039;-77
2022/11/29 01:56:05;;;;;;;42.85;29.02;;;4.00;93.20;;;;;;4971368;28;20387;-74
2022/11/29 01:58:32;;;;;;;37.60;27.27;;;4.00;93.20;;;;;;4965799;28;20062;-79
2022/11/29 02:00:59;;;;;;;34.28;24.90;;;4.00;93.20;;;;;;4973617;28;20491;-77
2022/11/29 02:03:25;;;;;;;28.35;22.13;;;3.90;93.20;;;;;;4963835;28;20149;-76
2022/11/29 02:05:52;;;;;;;29.13;22.70;;;3.90;93.20;;;;;;4974311;28;20042;-75
2022/11/29 02:08:27;;;;;;;33.35;24.70;;;3.90;93.20;;;;;;4960206;28;20039;-76
2022/11/29 02:11:11;;;;;;;34.80;23.42;;;3.80;93.10;;;;;;4964607;28;20066;-73
2022/11/29 02:13:54;;;;;;;45.58;24.50;;;3.70;93.00;;;;;;4963585;28;20047;-76
2022/11/29 02:16:33;;;;;;;28.98;20.88;;;3.70;93.00;;;;;;4963420;28;20042;-76
2022/11/29 02:19:08;;;;;;;26.98;20.70;;;3.70;93.00;;;;;;4969669;28;20491;-77
2022/11/29 02:22:18;;;;;;;29.05;21.23;;;3.70;93.00;;;;;;4966076;28;20704;-75
2022/11/29 02:25:11;;;;;;;26.63;20.80;;;3.70;93.10;;;;;;4972534;28;20035;-75
2022/11/29 02:27:42;;;;;;;33.22;22.90;;;3.60;93.00;;;;;;4962323;28;20392;-77
2022/11/29 02:30:43;;;;;;;32.10;21.80;;;3.60;93.00;;;;;;4967876;28;20045;-78
2022/11/29 02:33:36;;;;;;;37.65;25.38;;;3.60;93.00;;;;;;4960346;28;20035;-75
2022/11/29 02:36:17;;;;;;;29.02;22.73;;;3.50;93.00;;;;;;4962681;28;20039;-79
2022/11/29 02:39:07;;;;;;;32.25;21.42;;;3.50;93.10;;;;;;4969370;28;20057;-74
2022/11/29 02:41:41;;;;;;;39.33;23.25;;;3.50;93.00;;;;;;4965244;28;20450;-74
2022/11/29 02:44:44;;;;;;;32.58;22.33;;;3.40;93.10;;;;;;4967276;28;20043;-74
2022/11/29 02:47:37;;;;;;;29.23;21.52;;;3.40;93.20;;;;;;4960837;28;20092;-80
2022/11/29 02:50:21;;;;;;;30.25;22.17;;;3.30;93.30;;;;;;4963545;28;20269;-73
2022/11/29 02:53:00;;;;;;;29.70;22.67;;;3.30;93.30;;;;;;4969993;28;20062;-74
2022/11/29 02:55:49;;;;;;;28.73;20.75;;;3.30;93.30;;;;;;4967194;28;20170;-76
2022/11/29 02:58:35;;;;;;;29.40;21.83;;;3.40;93.40;;;;;;4957960;28;20028;-75
2022/11/29 03:01:14;;;;;;;25.58;19.20;;;3.40;93.40;;;;;;4964591;28;20484;-78
2022/11/29 03:03:54;;;;;;;27.13;20.35;;;3.30;93.40;;;;;;4965227;28;20224;-77
2022/11/29 03:06:29;;;;;;;42.80;21.40;;;3.30;93.50;;;;;;4965673;28;20038;-75
2022/11/29 03:09:12;;;;;;;27.88;20.85;;;3.30;93.50;;;;;;4969993;28;20042;-74
2022/11/29 03:12:19;;;;;;;26.60;18.88;;;3.30;93.50;;;;;;4965924;28;20041;-73
2022/11/29 03:15:19;;;;;;;26.90;20.08;;;3.30;93.60;;;;;;4978321;28;20218;-77
2022/11/29 03:17:56;;;;;;;25.55;19.52;;;3.30;93.60;;;;;;4964544;28;20034;-75
2022/11/29 03:20:27;;;;;;;30.95;20.42;;;3.30;93.70;;;;;;4968403;28;20510;-74
2022/11/29 03:23:17;;;;;;;27.38;19.60;;;3.30;93.70;;;;;;4969196;28;20046;-79
2022/11/29 03:25:52;;;;;;;26.60;18.83;;;3.30;93.60;;;;;;4967187;28;20050;-73
2022/11/29 03:28:31;;;;;;;38.30;22.48;;;3.30;93.60;;;;;;4969368;28;20499;-79
2022/11/29 03:31:19;;;;;;;34.30;21.45;;;3.20;93.50;;;;;;4960567;28;20550;-78
2022/11/29 03:34:23;;;;;;;27.95;20.23;;;3.10;93.50;;;;;;4966163;28;20046;-74
2022/11/29 03:37:24;;;;;;;31.10;22.15;;;3.20;93.50;;;;;;4959042;28;20062;-78
2022/11/29 03:39:58;;;;;;;27.77;20.42;;;3.20;93.50;;;;;;4960841;28;20117;-75
2022/11/29 03:43:03;;;;;;;91.97;23.67;;;3.20;93.50;;;;;;4967325;28;20098;-77
2022/11/29 03:45:33;;;;;;;52.00;20.42;;;3.10;93.20;;;;;;4940717;28;20692;-76
2022/11/29 03:48:15;;;;;;;52.45;19.67;;;3.00;93.10;;;;;;4967732;28;20296;-78
2022/11/29 03:50:58;;;;;;;100.82;22.27;;;2.90;93.20;;;;;;4959790;28;20258;-74
2022/11/29 03:53:36;;;;;;;53.88;19.60;;;2.70;93.20;;;;;;4964443;28;20034;-75
2022/11/29 03:56:21;;;;;;;117.75;23.50;;;2.70;93.40;;;;;;4971142;28;20042;-75
2022/11/29 03:59:24;;;;;;;23.52;18.23;;;2.70;93.40;;;;;;4961226;28;20160;-79
2022/11/29 04:02:36;;;;;;;22.98;17.33;;;2.70;93.60;;;;;;4957497;28;20233;-76
2022/11/29 04:05:15;;;;;;;25.10;18.08;;;2.80;93.70;;;;;;4965306;28;20038;-80
2022/11/29 04:07:50;;;;;;;22.65;17.70;;;2.90;93.70;;;;;;4965264;28;20464;-78
2022/11/29 04:10:37;;;;;;;23.05;17.92;;;3.00;93.70;;;;;;4967383;28;20031;-76
2022/11/29 04:13:11;;;;;;;23.73;18.23;;;3.10;93.70;;;;;;4966981;28;20058;-77
2022/11/29 04:15:55;;;;;;;26.92;19.15;;;3.10;93.70;;;;;;4966526;28;20031;-80
2022/11/29 04:18:39;;;;;;;31.90;20.07;;;3.20;93.70;;;;;;4963721;28;20043;-76
2022/11/29 04:21:12;;;;;;;39.05;18.23;;;3.20;93.40;;;;;;4966404;28;20174;-76
2022/11/29 04:24:08;;;;;;;22.77;17.63;;;3.20;93.40;;;;;;4960555;28;20407;-75
2022/11/29 04:27:11;;;;;;;22.65;18.60;;;3.20;93.40;;;;;;4966637;28;20118;-74
2022/11/29 04:29:55;;;;;;;21.15;16.85;;;3.20;93.30;;;;;;4959538;28;20405;-74
2022/11/29 04:32:40;;;;;;;20.27;17.13;;;3.30;93.30;;;;;;4964707;28;20043;-74
2022/11/29 04:35:28;;;;;;;32.25;19.02;;;3.20;93.20;;;;;;4968508;28;20092;-76
2022/11/29 04:38:22;;;;;;;20.85;17.95;;;3.20;93.30;;;;;;4960690;28;20050;-77
2022/11/29 04:41:09;;;;;;;21.65;17.27;;;3.20;93.30;;;;;;4961680;28;20075;-73
2022/11/29 04:44:10;;;;;;;20.05;17.23;;;3.20;93.50;;;;;;4959525;28;20057;-79
2022/11/29 04:46:35;;;;;;;22.92;19.10;;;3.30;93.50;;;;;;4963920;28;20268;-74
2022/11/29 04:49:03;;;;;;;25.52;19.40;;;3.40;93.60;;;;;;4960532;28;20030;-76
2022/11/29 04:51:47;;;;;;;27.90;18.30;;;3.40;93.60;;;;;;4965049;28;20877;-77
2022/11/29 04:54:34;;;;;;;22.45;18.17;;;3.40;93.60;;;;;;4965026;28;20031;-74
2022/11/29 04:57:08;;;;;;;20.00;17.83;;;3.50;93.70;;;;;;4978827;28;20046;-75
2022/11/29 04:59:59;;;;;;;20.88;18.05;;;3.50;93.60;;;;;;4961601;28;20050;-75
2022/11/29 05:02:52;;;;;;;23.33;18.20;;;3.60;93.70;;;;;;4964502;28;20031;-75
2022/11/29 05:05:31;;;;;;;36.25;19.95;;;3.60;93.70;;;;;;4961081;28;20027;-75
2022/11/29 05:08:16;;;;;;;35.83;21.05;;;3.60;93.70;;;;;;4968858;28;20057;-81
2022/11/29 05:11:06;;;;;;;23.25;19.23;;;3.60;93.70;;;;;;4976400;28;20101;-74
2022/11/29 05:13:40;;;;;;;21.58;18.23;;;3.60;93.80;;;;;;4968135;28;20526;-73
2022/11/29 05:16:12;;;;;;;;;;;3.70;93.80;;;;;;4962025;28;20051;-78
2022/11/29 05:19:02;;;;;;;26.98;21.00;;;3.70;93.90;;;;;;4972174;28;19914;-75
2022/11/29 05:21:59;;;;;;;36.35;21.55;;;3.80;93.90;;;;;;4968258;28;20487;-77
2022/11/29 05:24:43;;;;;;;23.10;20.08;;;3.80;93.90;;;;;;4961763;28;21126;-73
2022/11/29 05:27:14;;;;;;;23.27;19.42;;;3.80;93.90;;;;;;4957185;28;20081;-76
2022/11/29 05:29:40;;;;;;;24.90;21.83;;;3.80;93.90;;;;;;4962378;28;20069;-77
2022/11/29 05:32:21;;;;;;;24.25;21.15;;;3.80;93.90;;;;;;4955178;28;20063;-78
2022/11/29 05:35:12;;;;;;;24.70;20.63;;;3.90;93.90;;;;;;4959232;28;20031;-79
2022/11/29 05:37:43;;;;;;;22.77;19.83;;;3.90;93.90;;;;;;4980629;28;20117;-74
2022/11/29 05:40:39;;;;;;;26.65;20.77;;;3.90;93.90;;;;;;4956005;28;20587;-74
2022/11/29 05:43:27;;;;;;;58.40;24.90;;;3.90;93.90;;;;;;4958838;28;21007;-76
2022/11/29 05:46:06;;;;;;;25.27;19.30;;;3.90;93.90;;;;;;4958261;28;20043;-75
2022/11/29 05:48:36;;;;;;;27.38;19.48;;;3.80;94.00;;;;;;4962254;28;20337;-74
2022/11/29 05:51:28;;;;;;;22.88;19.45;;;3.90;93.90;;;;;;4975100;28;20033;-79
2022/11/29 05:54:21;;;;;;;24.52;19.50;;;3.90;93.90;;;;;;4960935;28;20589;-75
2022/11/29 05:57:11;;;;;;;47.80;22.63;;;3.90;94.00;;;;;;4965878;28;20039;-75
2022/11/29 05:59:40;;;;;;;22.20;19.17;;;3.90;93.90;;;;;;4969431;28;20066;-76
2022/11/29 06:02:32;;;;;;;22.02;18.23;;;3.80;93.90;;;;;;4957174;28;20043;-77
2022/11/29 06:05:38;;;;;;;29.27;19.50;;;3.80;93.90;;;;;;4962661;28;20669;-76
2022/11/29 06:08:24;;;;;;;35.17;16.90;;;3.90;94.00;;;;;;4959350;28;20233;-77
2022/11/29 06:11:16;;;;;;;20.50;16.77;;;3.90;94.00;;;;;;4972095;28;20340;-77
2022/11/29 06:14:13;;;;;;;20.75;17.65;;;3.80;94.00;;;;;;4960598;28;20500;-80
2022/11/29 06:17:17;;;;;;;23.05;17.88;;;3.90;94.10;;;;;;4959603;28;20043;-77
2022/11/29 06:20:03;;;;;;;39.13;19.17;;;3.90;94.10;;;;;;4971380;28;20027;-78
2022/11/29 06:22:37;;;;;;;22.63;17.67;;;4.00;94.10;;;;;;4955653;28;20055;-78
2022/11/29 06:25:34;;;;;;;23.40;17.08;;;4.00;94.20;;;;;;4954668;28;20081;-77
2022/11/29 06:28:30;;;;;;;21.13;17.67;;;4.00;94.20;;;;;;4958167;28;20053;-80
2022/11/29 06:31:08;;;;;;;22.05;16.95;;;4.00;94.10;;;;;;4964102;28;20374;-79
2022/11/29 06:34:19;;;;;;;30.25;18.50;;;4.00;94.10;;;;;;4974070;28;20515;-76
2022/11/29 06:36:55;;;;;;;25.13;17.63;;;4.00;94.10;;;;;;4966590;28;20049;-78
2022/11/29 06:39:21;;;;;;;21.35;17.92;;;4.00;94.20;;;;;;4963703;28;20189;-77
2022/11/29 06:41:47;;;;;;;22.45;17.45;;;4.00;94.20;;;;;;4967973;28;20122;-76
2022/11/29 06:44:14;;;;;;;21.42;17.17;;;4.00;94.20;;;;;;4963636;28;20173;-76
2022/11/29 06:46:54;;;;;;;18.90;16.48;;;4.00;94.20;;;;;;4975480;28;20499;-79
2022/11/29 06:49:42;;;;;;;25.83;18.23;;;4.00;94.20;;;;;;4960990;28;20285;-78
2022/11/29 06:52:11;;;;;;;22.38;18.52;;;3.90;94.10;;;;;;4966470;28;20052;-76
2022/11/29 06:55:04;;;;;;;32.00;21.77;;;3.90;94.20;;;;;;4972631;28;20385;-78
2022/11/29 06:57:54;;;;;;;23.05;18.58;;;3.90;94.20;;;;;;4965123;28;20031;-80
2022/11/29 07:00:27;;;;;;;20.42;17.27;;;3.90;94.20;;;;;;4968401;28;20045;-79
2022/11/29 07:03:05;;;;;;;26.63;18.00;;;3.80;94.10;;;;;;4966535;28;20169;-77
2022/11/29 07:05:33;;;;;;;23.80;17.63;;;3.80;94.10;;;;;;4975170;28;20038;-76
2022/11/29 07:08:11;;;;;;;21.63;17.85;;;3.80;94.20;;;;;;4967548;28;20030;-80
2022/11/29 07:10:39;;;;;;;28.20;18.63;;;3.90;94.20;;;;;;4965258;28;20035;-81
2022/11/29 07:13:05;;;;;;;21.35;17.13;;;3.90;94.30;;;;;;4961036;28;20363;-77
2022/11/29 07:15:32;;;;;;;23.45;18.05;;;3.80;94.20;;;;;;4968262;28;20049;-78
2022/11/29 07:18:12;;;;;;;21.63;17.27;;;3.90;94.30;;;;;;4978989;28;20095;-80
2022/11/29 07:20:58;;;;;;;21.25;16.70;;;3.80;94.20;;;;;;4970086;28;20054;-81
2022/11/29 07:23:55;;;;;;;25.08;19.00;;;3.90;94.20;;;;;;4984636;28;20458;-78
2022/11/29 07:26:36;;;;;;;24.35;17.77;;;3.90;94.20;;;;;;4960658;28;20134;-78
2022/11/29 07:29:09;;;;;;;19.33;16.98;;;3.90;94.20;;;;;;4962331;28;20030;-77
2022/11/29 07:32:04;;;;;;;20.85;17.20;;;3.80;94.20;;;;;;4963993;28;20039;-78
2022/11/29 07:34:44;;;;;;;25.88;18.00;;;3.90;94.20;;;;;;4963723;28;20039;-80
2022/11/29 07:37:20;;;;;;;67.13;19.80;;;3.90;94.20;;;;;;4969024;28;20554;-76
2022/11/29 07:40:23;;;;;;;20.45;16.13;;;3.90;94.20;;;;;;4958483;28;20034;-77
2022/11/29 07:43:16;;;;;;;26.80;17.13;;;3.80;94.10;;;;;;4963443;28;20053;-78
2022/11/29 07:45:42;;;;;;;22.27;17.42;;;3.80;94.10;;;;;;4966696;28;20039;-77
2022/11/29 07:48:11;;;;;;;25.88;16.08;;;3.80;94.10;;;;;;4962301;28;20045;-80
2022/11/29 07:50:37;;;;;;;23.75;18.67;;;3.80;94.10;;;;;;4964927;28;20093;-76
2022/11/29 07:53:03;;;;;;;22.77;17.60;;;3.80;94.10;;;;;;4970350;28;20434;-79
2022/11/29 07:55:30;;;;;;;46.50;20.30;;;3.90;94.10;;;;;;4964970;28;20035;-78
2022/11/29 07:57:55;;;;;;;95.63;21.17;;;3.90;94.10;;;;;;4968526;28;20031;-76
2022/11/29 08:00:21;;;;;;;20.58;16.67;;;3.80;93.90;;;;;;4960081;28;20470;-76
2022/11/29 08:02:48;;;;;;;22.27;17.98;;;3.80;93.80;;;;;;4959430;28;20066;-78
2022/11/29 08:05:14;;;;;;;32.65;18.02;;;3.80;93.90;;;;;;4967052;28;22005;-77
2022/11/29 08:07:41;;;;;;;20.75;17.23;;;3.80;93.90;;;;;;4963844;28;20117;-82
2022/11/29 08:10:10;;;;;;;21.63;17.27;;;3.90;93.90;;;;;;4968608;28;20039;-76
2022/11/29 08:12:35;;;;;;;18.23;15.95;;;3.90;93.90;;;;;;4961898;28;20046;-79
2022/11/29 08:15:01;;;;;;;41.53;19.35;;;3.90;93.90;;;;;;4963877;28;20041;-78
2022/11/29 08:17:27;;;;;;;21.73;18.00;;;4.00;93.90;;;;;;4959811;28;20070;-76
2022/11/29 08:19:53;;;;;;;35.38;18.17;;;4.00;94.00;;;;;;4967572;28;20485;-76
2022/11/29 08:22:18;;;;;;;31.42;18.90;;;4.10;93.90;;;;;;4956128;28;20031;-76
2022/11/29 08:24:44;;;;;;;22.75;18.05;;;4.10;93.90;;;;;;4965543;28;20121;-76
2022/11/29 08:27:10;;;;;;;25.27;18.65;;;4.10;93.80;;;;;;4960974;28;20459;-80
2022/11/29 08:29:35;;;;;;;36.50;19.35;;;4.10;93.80;;;;;;4966855;28;20121;-78
2022/11/29 08:32:01;;;;;;;37.08;20.73;;;4.20;93.80;;;;;;4959055;28;20031;-78
2022/11/29 08:34:27;;;;;;;23.42;17.25;;;4.20;93.80;;;;;;4962582;28;20343;-79
2022/11/29 08:36:56;;;;;;;32.85;20.42;;;4.20;93.70;;;;;;4980642;28;20519;-77
2022/11/29 08:39:22;;;;;;;98.60;23.35;;;4.20;93.60;;;;;;4963243;28;20533;-77
2022/11/29 08:41:50;;;;;;;33.60;19.48;;;4.20;93.60;;;;;;4983723;28;20353;-77
2022/11/29 08:44:17;;;;;;;26.15;19.75;;;4.20;93.50;;;;;;4965615;28;20034;-78
2022/11/29 08:49:26;;;;;;;42.15;22.60;;;4.20;93.60;;;;;;4966143;28;20466;-76
2022/11/29 08:53:40;;;;;;;23.35;19.25;;;4.20;93.50;;;;;;4974820;28;20030;-78
2022/11/29 08:54:38;;;;;;;53.72;20.88;;;4.30;93.50;;;;;;4964926;28;20482;-77
2022/11/29 08:57:03;;;;;;;68.97;20.83;;;4.30;93.50;;;;;;4959318;28;20042;-80
2022/11/29 08:59:29;;;;;;;25.50;19.15;;;4.30;93.40;;;;;;4962583;28;20050;-76
2022/11/29 09:01:55;;;;;;;40.45;20.08;;;4.30;93.50;;;;;;4962158;28;20035;-79
2022/11/29 09:04:20;;;;;;;26.33;18.40;;;4.40;93.50;;;;;;4966100;28;20035;-77
2022/11/29 09:06:48;;;;;;;36.38;18.08;;;4.40;93.30;;;;;;4965249;28;20058;-77
2022/11/29 09:09:14;;;;;;;85.63;21.23;;;4.50;93.20;;;;;;4960829;28;20121;-78
2022/11/29 09:11:40;;;;;;;45.45;18.58;;;4.40;93.20;;;;;;4967713;28;20030;-80
2022/11/29 09:14:07;;;;;;;42.50;20.15;;;4.40;93.30;;;;;;4963212;28;20408;-78
2022/11/29 09:16:35;;;;;;;31.73;18.30;;;4.50;93.30;;;;;;4970911;28;20029;-80
2022/11/29 09:19:03;;;;;;;34.92;18.83;;;4.60;93.30;;;;;;4962095;28;20034;-75
2022/11/29 09:21:30;;;;;;;36.05;20.27;;;4.60;93.20;;;;;;4966672;28;20059;-76
2022/11/29 09:23:59;;;;;;;29.55;19.75;;;4.60;93.10;;;;;;4963174;28;20149;-74
2022/11/29 09:26:30;;;;;;;25.95;18.25;;;4.60;93.10;;;;;;4963308;28;20042;-77
2022/11/29 09:29:00;;;;;;;24.15;18.17;;;4.60;93.10;;;;;;4961007;28;20403;-78
2022/11/29 09:31:26;;;;;;;21.40;17.98;;;4.80;93.10;;;;;;4959945;28;20447;-77
2022/11/29 09:33:52;;;;;;;47.92;21.52;;;4.80;93.10;;;;;;4961186;28;20027;-79
2022/11/29 09:36:18;;;;;;;33.92;20.45;;;4.90;93.00;;;;;;4966412;28;20047;-79
2022/11/29 09:38:44;;;;;;;33.88;20.52;;;4.90;92.90;;;;;;4959667;28;20034;-76
2022/11/29 09:41:30;;;;;;;23.50;18.48;;;4.90;92.70;;;;;;4963257;28;20482;-80
2022/11/29 09:44:35;;;;;;;40.13;19.85;;;4.90;92.60;;;;;;4968181;28;20102;-79
2022/11/29 09:47:22;;;;;;;24.77;17.43;;;4.90;92.70;;;;;;4964756;28;20057;-83
2022/11/29 09:50:08;;;;;;;49.30;21.67;;;5.00;92.60;;;;;;4965847;28;20648;-82
2022/11/29 09:53:11;;;;;;;75.00;23.55;;;5.10;92.70;;;;;;4959671;28;20061;-80
2022/11/29 09:56:11;;;;;;;24.08;18.63;;;5.10;92.60;;;;;;4974618;28;20041;-83
2022/11/29 09:59:15;;;;;;;77.18;48.83;;;5.10;92.60;;;;;;4964770;28;20050;-82
2022/11/29 10:01:46;;;;;;;114.03;23.52;;;5.20;92.70;;;;;;4966371;28;20027;-79
2022/11/29 10:04:24;;;;;;;51.00;19.30;;;5.20;92.40;;;;;;4967901;28;20030;-79
2022/11/29 10:07:05;;;;;;;21.80;16.00;;;5.10;92.10;;;;;;4966371;28;20109;-82
2022/11/29 10:09:49;;;;;;;26.80;19.27;;;5.20;92.20;;;;;;4962642;28;20077;-80
2022/11/29 10:12:29;;;;;;;26.10;22.50;;;5.20;92.30;;;;;;4959694;28;20054;-76
2022/11/29 10:15:16;;;;;;;54.50;20.95;;;5.30;92.40;;;;;;4956535;28;20424;-79
2022/11/29 10:18:03;;;;;;;31.17;27.88;;;5.30;92.10;;;;;;4963482;28;20585;-78
2022/11/29 10:20:37;;;;;;;49.20;22.80;;;5.40;92.20;;;;;;4961100;28;20039;-84
2022/11/29 10:23:30;;;;;;;21.63;17.85;;;5.40;92.20;;;;;;4962334;28;20207;-78
2022/11/29 10:25:57;;;;;;;40.80;18.73;;;5.50;92.20;;;;;;4965568;28;20038;-77
2022/11/29 10:28:26;;;;;;;23.60;16.38;;;5.60;92.20;;;;;;4961240;28;20047;-80
2022/11/29 10:30:57;;;;;;;35.25;20.75;;;5.60;92.20;;;;;;4974504;28;20031;-79
2022/11/29 10:33:29;;;;;;;97.18;38.08;;;5.60;92.10;;;;;;4975783;28;20031;-77
2022/11/29 10:36:01;;;;;;;31.40;22.13;;;5.60;92.00;;;;;;4976788;28;20387;-80
2022/11/29 10:38:27;;;;;;;28.10;16.98;;;5.60;92.10;;;;;;4973080;28;20042;-82
2022/11/29 10:41:06;;;;;;;97.30;19.00;;;5.70;91.90;;;;;;4974435;28;20037;-78
2022/11/29 10:43:32;;;;;;;22.55;16.05;;;5.60;91.70;;;;;;4979824;28;20109;-80
2022/11/29 10:46:01;;;;;;;60.10;23.17;;;5.60;91.70;;;;;;4970251;28;20031;-76
2022/11/29 10:48:32;;;;;;;56.55;28.10;;;5.70;91.80;;;;;;4968342;28;20030;-78
2022/11/29 10:51:00;;;;;;;21.50;15.23;;;5.70;92.00;;;;;;4958098;28;20119;-79
2022/11/29 10:53:30;;;;;;;40.20;16.23;;;5.70;91.80;;;;;;4962621;28;20097;-79
2022/11/29 10:56:07;;;;;;;50.30;16.17;;;5.70;91.60;;;;;;4964320;28;20046;-77
2022/11/29 10:58:33;;;;;;;41.63;17.40;;;5.80;91.90;;;;;;4979809;28;20153;-76
2022/11/29 11:01:07;;;;;;;19.70;15.23;;;5.80;91.80;;;;;;4965466;28;20031;-79
2022/11/29 11:03:35;;;;;;;18.15;14.68;;;5.90;91.90;;;;;;4966640;28;20045;-78
2022/11/29 11:06:19;;;;;;;95.97;20.40;;;5.90;91.80;;;;;;4966789;28;20483;-77
2022/11/29 11:08:56;;;;;;;75.38;21.80;;;6.00;91.80;;;;;;4963756;28;20129;-75
2022/11/29 11:11:30;;;;;;;21.38;16.35;;;6.00;91.70;;;;;;4966912;28;20026;-78
2022/11/29 11:14:04;;;;;;;51.63;28.35;;;6.10;91.80;;;;;;4970959;28;20034;-78
2022/11/29 11:16:31;;;;;;;23.02;18.17;;;6.10;91.80;;;;;;4973288;28;20466;-77
2022/11/29 11:18:56;;;;;;;28.25;16.98;;;6.10;91.90;;;;;;4962993;28;20126;-80
2022/11/29 11:21:24;;;;;;;24.13;18.27;;;6.20;91.70;;;;;;4966236;28;20638;-76
2022/11/29 11:24:00;;;;;;;27.40;16.38;;;6.20;91.80;;;;;;4969618;28;20034;-77
2022/11/29 11:26:39;;;;;;;23.95;16.50;;;6.30;91.80;;;;;;4962861;28;20458;-82
2022/11/29 11:29:05;;;;;;;19.27;15.63;;;6.30;91.50;;;;;;4971563;28;20030;-81
2022/11/29 11:31:36;;;;;;;29.20;16.80;;;6.30;91.40;;;;;;4971790;28;20031;-81
2022/11/29 11:34:26;;;;;;;77.03;20.25;;;6.40;91.50;;;;;;4959787;28;20674;-81
2022/11/29 11:36:53;;;;;;;25.77;17.58;;;6.30;91.50;;;;;;4958629;28;20128;-79
2022/11/29 11:39:22;;;;;;;30.38;17.60;;;6.30;91.70;;;;;;4956565;28;20077;-80
2022/11/29 11:44:48;;;;;;;26.30;16.67;;;6.40;91.60;;;;;;4956022;28;20065;-79
2022/11/29 11:47:26;;;;;;;46.45;19.08;;;6.50;91.70;;;;;;4954972;28;20045;-79
2022/11/29 11:50:05;;;;;;;50.13;17.92;;;6.50;91.70;;;;;;4956628;28;20047;-81
2022/11/29 11:52:43;;;;;;;20.33;15.98;;;6.50;91.50;;;;;;4958123;28;20468;-78
2022/11/29 11:55:21;;;;;;;28.65;19.25;;;6.50;91.30;;;;;;4955887;28;20026;-81
2022/11/29 11:58:05;;;;;;;21.88;17.92;;;6.50;91.30;;;;;;4955416;28;20041;-77
2022/11/29 12:00:42;;;;;;;40.20;17.42;;;6.60;91.50;;;;;;4954188;28;20043;-76
2022/11/29 12:03:42;;;;;;;72.45;21.08;;;6.60;91.60;;;;;;4968805;28;20117;-80
2022/11/29 12:06:26;;;;;;;42.00;19.23;;;6.60;91.60;;;;;;4921490;28;20038;-80
2022/11/29 12:08:58;;;;;;;35.77;15.67;;;6.60;91.60;;;;;;4953099;28;20551;-76
2022/11/29 12:11:25;;;;;;;19.30;15.35;;;6.60;91.30;;;;;;4953753;28;20300;-83
2022/11/29 12:13:56;;;;;;;49.20;17.25;;;6.60;91.60;;;;;;4955037;28;20287;-79
2022/11/29 12:16:30;;;;;;;43.70;16.75;;;6.60;91.30;;;;;;4970195;28;20055;-78
2022/11/29 12:18:59;;;;;;;;;;;6.60;91.40;;;;;;4956982;28;20043;-77
2022/11/29 12:21:30;;;;;;;20.80;16.13;;;6.60;91.30;;;;;;4953353;28;20010;-77
2022/11/29 12:24:02;;;;;;;35.45;17.50;;;6.60;91.60;;;;;;4955927;28;20484;-78
2022/11/29 12:26:36;;;;;;;37.45;17.98;;;6.60;91.70;;;;;;4956127;28;20319;-78
2022/11/29 12:29:02;;;;;;;28.50;17.58;;;6.70;91.80;;;;;;4956750;28;20644;-79
2022/11/29 12:31:53;;;;;;;24.70;17.13;;;6.60;91.70;;;;;;4955675;28;20035;-75
2022/11/29 12:34:37;;;;;;;27.88;17.92;;;6.60;91.80;;;;;;4953504;28;20469;-78
2022/11/29 12:37:35;;;;;;;41.03;19.70;;;6.70;91.80;;;;;;4969147;28;21087;-75
2022/11/29 12:40:21;;;;;;;46.72;18.20;;;6.60;91.90;;;;;;4953531;28;20146;-76
2022/11/29 12:43:19;;;;;;;27.10;17.63;;;6.70;91.80;;;;;;4954613;28;20031;-79
2022/11/29 12:45:56;;;;;;;37.78;25.88;;;6.70;91.70;;;;;;4955535;28;20062;-76
2022/11/29 12:48:59;;;;;;;34.45;24.70;;;6.60;91.80;;;;;;4954289;28;20042;-76
2022/11/29 12:51:28;;;;;;;41.72;23.02;;;6.80;92.00;;;;;;4968209;28;20035;-76
2022/11/29 12:54:18;;;;;;;44.55;23.38;;;6.70;91.70;;;;;;4960753;28;20043;-78
2022/11/29 12:57:03;;;;;;;87.00;24.88;;;6.70;91.60;;;;;;4963824;28;20049;-83
2022/11/29 13:00:00;;;;;;;38.28;23.40;;;6.70;91.60;;;;;;4980016;28;20751;-76
2022/11/29 13:03:03;;;;;;;31.10;21.85;;;6.70;91.70;;;;;;4967755;28;20027;-77
2022/11/29 13:05:55;;;;;;;43.92;26.73;;;6.80;91.80;;;;;;4964810;28;20034;-80
2022/11/29 13:08:45;;;;;;;75.22;39.53;;;6.80;92.00;;;;;;4957123;28;20042;-78
2022/11/29 13:11:36;;;;;;;41.90;27.45;;;6.90;92.10;;;;;;4960921;28;20034;-77
2022/11/29 13:14:28;;;;;;;62.38;29.15;;;6.80;91.80;;;;;;4960276;28;20042;-77
2022/11/29 13:17:03;;;;;;;42.22;26.98;;;6.80;91.70;;;;;;4959686;28;20483;-78
2022/11/29 13:20:03;;;;;;;58.67;35.97;;;6.80;91.90;;;;;;4962460;28;20069;-78
2022/11/29 13:22:37;;;;;;;49.05;34.70;;;6.80;92.00;;;;;;4964221;28;20047;-76
2022/11/29 13:25:11;;;;;;;;;;;6.70;92.00;;;;;;4967278;28;20117;-75
2022/11/29 13:27:43;;;;;;;48.75;28.92;;;6.70;91.90;;;;;;4967536;28;19933;-83
2022/11/29 13:30:14;;;;;;;52.33;29.10;;;6.80;92.10;;;;;;4965547;28;20535;-80
2022/11/29 13:33:10;;;;;;;78.60;32.55;;;6.80;92.00;;;;;;4963815;28;20271;-78
2022/11/29 13:35:59;;;;;;;49.25;28.90;;;6.80;92.10;;;;;;4966371;28;20053;-79